Time;durP1;ratioP1;P1;durP2;ratioP2;P2;SDS_P1;SDS_P2;PMS_P1;PMS_P2;Temp;Humidity;BMP_temperature;BMP_pressure;BME280_temperature;BME280_humidity;BME280_pressure;Samples;Min_cycle;Max_cycle;Signal;HPM_P1;HPM_P2
2022/01/12 00:01:33;;;;;;;159.80;55.58;;;;;;;6.95;65.65;103580.91;5247617;28;20412;-45
2022/01/12 00:04:07;;;;;;;161.00;58.57;;;;;;;6.95;65.59;103576.50;5247679;28;20424;-46
2022/01/12 00:06:40;;;;;;;151.43;54.45;;;;;;;6.99;65.77;103583.34;5250304;28;20746;-43
2022/01/12 00:09:14;;;;;;;174.82;57.38;;;;;;;6.97;65.71;103561.53;5248473;28;20766;-44
2022/01/12 00:11:47;;;;;;;177.37;55.43;;;;;;;6.99;65.77;103566.72;5248276;28;20401;-45
2022/01/12 00:14:20;;;;;;;168.05;57.58;;;;;;;7.02;65.81;103574.47;5247747;28;20442;-46
2022/01/12 00:16:58;;;;;;;173.27;59.70;;;;;;;7.06;65.62;103576.06;5249814;28;20860;-45
2022/01/12 00:19:31;;;;;;;181.23;59.58;;;;;;;7.07;65.81;103564.66;5246821;28;20417;-45
2022/01/12 00:22:04;;;;;;;189.30;58.97;;;;;;;7.01;65.85;103559.66;5245369;28;21059;-46
2022/01/12 00:25:05;;;;;;;192.63;61.40;;;;;;;7.09;65.83;103568.06;5253133;28;25105;-43
2022/01/12 00:33:15;;;;;;;203.93;64.03;;;;;;;7.02;65.87;103563.97;5245713;28;20398;-46
2022/01/12 00:35:50;;;;;;;220.95;65.53;;;;;;;7.15;65.90;103592.34;5246827;28;20406;-47
2022/01/12 00:38:25;;;;;;;223.23;65.38;;;;;;;7.17;65.89;103589.66;5247304;28;20440;-44
2022/01/12 00:40:58;;;;;;;209.07;62.42;;;;;;;7.18;66.05;103588.72;5243693;28;20437;-44
2022/01/12 00:43:33;;;;;;;229.38;66.80;;;;;;;7.21;65.99;103593.00;5245529;28;20424;-43
2022/01/12 00:46:06;;;;;;;207.93;63.58;;;;;;;7.24;66.00;103598.16;5247322;28;20414;-46
2022/01/12 00:48:40;;;;;;;205.73;60.47;;;;;;;7.25;66.03;103584.13;5244318;28;20430;-52
2022/01/12 00:51:12;;;;;;;205.30;61.38;;;;;;;7.23;66.02;103571.00;5250481;28;20401;-44
2022/01/12 00:53:44;;;;;;;193.70;60.83;;;;;;;7.22;66.14;103571.09;5243601;28;20883;-42
2022/01/12 00:56:17;;;;;;;195.93;59.40;;;;;;;7.19;66.24;103569.44;5241248;28;20431;-48
2022/01/12 00:58:49;;;;;;;193.82;61.35;;;;;;;7.13;66.25;103553.91;5239570;28;20416;-44
2022/01/12 01:01:24;;;;;;;204.07;62.35;;;;;;;7.11;66.32;103561.00;5248059;28;20422;-43
2022/01/12 01:03:57;;;;;;;185.63;62.75;;;;;;;7.08;66.17;103566.38;5246058;28;20414;-43
2022/01/12 01:06:31;;;;;;;203.10;61.70;;;;;;;7.09;66.52;103565.44;5245613;28;20421;-43
2022/01/12 01:09:04;;;;;;;191.93;61.50;;;;;;;7.09;66.54;103563.69;5244118;28;20473;-42
2022/01/12 01:11:36;;;;;;;181.73;59.85;;;;;;;7.08;66.50;103554.06;5249024;28;20420;-45
2022/01/12 01:14:15;;;;;;;186.38;59.90;;;;;;;7.07;66.52;103552.38;5240127;28;20403;-42
2022/01/12 01:17:03;;;;;;;181.43;58.72;;;;;;;7.10;66.52;103564.53;5237991;28;20422;-46
2022/01/12 01:25:31;;;;;;;166.30;56.42;;;;;;;7.10;66.73;103607.44;5243321;28;20390;-42
2022/01/12 01:28:05;;;;;;;177.70;56.17;;;;;;;7.10;66.52;103619.72;5243443;28;20905;-46
2022/01/12 01:30:40;;;;;;;178.48;55.97;;;;;;;7.18;66.62;103636.03;5240778;28;20414;-45
2022/01/12 01:33:16;;;;;;;165.50;54.92;;;;;;;7.11;66.43;103631.94;5245893;28;20417;-45
2022/01/12 01:35:55;;;;;;;152.63;54.03;;;;;;;7.23;66.70;103655.13;5244280;28;21824;-47
2022/01/12 01:38:27;;;;;;;174.90;56.22;;;;;;;7.25;66.52;103669.09;5247774;28;20410;-42
2022/01/12 01:41:00;;;;;;;174.85;56.38;;;;;;;7.28;66.51;103670.75;5244775;28;20427;-43
2022/01/12 01:43:44;;;;;;;166.43;56.88;;;;;;;7.30;66.50;103667.13;5248758;28;20436;-43
2022/01/12 01:54:48;;;;;;;168.30;56.53;;;;;;;7.28;66.59;103694.41;5234862;28;20406;-44
2022/01/12 01:57:21;;;;;;;171.15;56.95;;;;;;;7.30;66.55;103708.31;5247913;28;20406;-43
2022/01/12 01:59:54;;;;;;;183.82;58.72;;;;;;;7.34;66.58;103718.69;5247612;28;20754;-43
2022/01/12 02:02:26;;;;;;;171.33;56.80;;;;;;;7.37;66.53;103721.19;5238917;28;20508;-43
2022/01/12 02:04:59;;;;;;;174.68;55.20;;;;;;;7.39;66.53;103713.22;5244290;28;20398;-44
2022/01/12 02:07:33;;;;;;;184.32;58.80;;;;;;;7.39;66.59;103700.94;5234502;28;20426;-43
2022/01/12 02:10:07;;;;;;;202.27;60.23;;;;;;;7.41;66.53;103708.78;5239868;28;20410;-44
2022/01/12 02:12:39;;;;;;;187.35;57.60;;;;;;;7.43;66.62;103700.81;5243212;28;20416;-44
2022/01/12 02:15:19;;;;;;;204.55;58.28;;;;;;;7.19;66.70;103664.06;5249020;28;20398;-42
2022/01/12 02:18:05;;;;;;;192.13;58.20;;;;;;;7.46;66.62;103713.84;5240158;28;20424;-44
2022/01/12 02:35:35;;;;;;;200.73;58.97;;;;;;;7.57;66.68;103716.94;5207369;28;20418;-42
2022/01/12 02:40:59;;;;;;;251.77;67.25;;;;;;;7.60;66.55;103712.41;5239585;28;20912;-43
2022/01/12 02:50:34;;;;;;;230.75;63.00;;;;;;;7.61;66.59;103719.38;5244629;28;20410;-42
2022/01/12 02:55:05;;;;;;;260.38;67.85;;;;;;;7.60;66.68;103708.94;5246496;28;20398;-47
2022/01/12 02:57:37;;;;;;;337.48;69.53;;;;;;;7.59;66.45;103708.06;5251077;28;20748;-43
2022/01/12 03:00:15;;;;;;;359.48;74.07;;;;;;;7.60;66.70;103708.94;5253818;28;20408;-44
2022/01/12 03:02:51;;;;;;;361.05;72.25;;;;;;;7.63;66.85;103706.19;5245244;28;20408;-48
2022/01/12 03:05:44;;;;;;;677.10;93.35;;;;;;;7.65;66.72;103722.75;5246285;28;20778;-43
2022/01/12 03:08:19;;;;;;;435.27;76.25;;;;;;;7.66;66.80;103734.13;5247943;28;20745;-47
2022/01/12 03:10:53;;;;;;;363.13;73.07;;;;;;;7.68;66.83;103741.06;5248691;28;20437;-43
2022/01/12 03:13:26;;;;;;;455.60;78.72;;;;;;;7.67;66.77;103736.69;5245951;28;20420;-44
2022/01/12 03:15:58;;;;;;;374.63;73.23;;;;;;;7.42;66.72;103701.75;5249119;28;20480;-43
2022/01/12 03:18:30;;;;;;;318.48;71.65;;;;;;;7.64;66.89;103736.81;5251443;28;20414;-44
2022/01/12 03:21:03;;;;;;;347.90;72.18;;;;;;;7.65;66.89;103742.94;5251137;28;20413;-43
2022/01/12 03:23:35;;;;;;;357.67;74.15;;;;;;;7.63;66.78;103740.38;5252052;28;20406;-43
2022/01/12 03:26:10;;;;;;;319.00;70.15;;;;;;;7.60;66.79;103745.75;5246597;28;20398;-45
2022/01/12 03:28:52;;;;;;;283.10;66.25;;;;;;;7.57;66.80;103743.25;5247018;28;20424;-43
2022/01/12 03:31:27;;;;;;;246.25;63.03;;;;;;;7.51;66.77;103749.59;5249039;28;20985;-44
2022/01/12 03:34:06;;;;;;;238.23;62.45;;;;;;;7.44;66.89;103763.88;5251529;28;20417;-43
2022/01/12 03:36:54;;;;;;;203.60;55.90;;;;;;;7.37;66.98;103762.38;5247295;28;21706;-43
2022/01/12 03:39:26;;;;;;;215.60;53.55;;;;;;;7.30;66.87;103756.50;5246095;28;20906;-43
2022/01/12 03:42:00;;;;;;;197.20;51.73;;;;;;;7.24;66.96;103769.88;5248301;28;20406;-44
2022/01/12 03:44:32;;;;;;;197.27;49.15;;;;;;;7.18;67.00;103762.19;5245214;28;20426;-43
2022/01/12 03:47:06;;;;;;;189.25;48.05;;;;;;;7.12;67.07;103758.06;5251073;28;20509;-46
2022/01/12 03:49:38;;;;;;;191.52;47.30;;;;;;;7.07;66.94;103740.72;5249704;28;20406;-42
2022/01/12 03:52:10;;;;;;;188.32;47.75;;;;;;;7.01;67.19;103738.31;5251590;28;20378;-44
2022/01/12 03:54:43;;;;;;;165.43;42.58;;;;;;;6.96;67.15;103735.84;5253267;28;20402;-42
2022/01/12 03:57:16;;;;;;;157.82;41.10;;;;;;;6.91;67.06;103733.41;5245589;28;20887;-44
2022/01/12 03:59:49;;;;;;;162.17;42.10;;;;;;;6.85;67.10;103733.63;5244185;28;20449;-43
2022/01/12 04:02:22;;;;;;;163.48;41.58;;;;;;;6.79;67.10;103722.47;5243146;28;20440;-43
2022/01/12 04:05:09;;;;;;;169.43;41.70;;;;;;;6.76;67.13;103726.06;5248898;28;20489;-43
2022/01/12 04:10:31;;;;;;;156.63;39.10;;;;;;;6.66;67.16;103736.03;5242416;28;20958;-44
2022/01/12 04:13:05;;;;;;;141.50;36.33;;;;;;;6.57;67.04;103746.00;5243906;28;20416;-43
2022/01/12 04:15:37;;;;;;;138.75;35.13;;;;;;;6.49;67.15;103762.00;5248143;28;20766;-44
2022/01/12 04:18:10;;;;;;;117.15;33.10;;;;;;;6.45;67.26;103766.50;5245326;28;20445;-43
2022/01/12 04:20:45;;;;;;;140.65;36.67;;;;;;;6.38;67.28;103765.00;5251929;28;20413;-45
2022/01/12 04:23:21;;;;;;;148.10;37.60;;;;;;;6.32;67.10;103764.31;5240455;28;20759;-46
2022/01/12 04:25:57;;;;;;;144.52;35.13;;;;;;;6.24;67.16;103761.94;5250161;28;20410;-45
2022/01/12 04:28:31;;;;;;;146.77;35.65;;;;;;;6.09;67.25;103747.56;5246003;28;20417;-43
2022/01/12 04:31:03;;;;;;;131.45;35.20;;;;;;;6.12;67.37;103752.69;5251332;28;20405;-43
2022/01/12 04:33:37;;;;;;;129.35;33.60;;;;;;;6.08;67.28;103750.25;5247703;28;20426;-43
2022/01/12 04:36:10;;;;;;;136.25;34.17;;;;;;;5.99;67.40;103744.38;5250521;28;20441;-43
2022/01/12 04:38:45;;;;;;;131.90;34.40;;;;;;;5.94;67.31;103748.88;5246789;28;20394;-45
2022/01/12 04:41:17;;;;;;;119.15;30.95;;;;;;;5.89;67.39;103750.78;5247550;28;20402;-47
2022/01/12 04:43:52;;;;;;;142.05;32.10;;;;;;;5.88;67.46;103748.19;5250740;28;20917;-43
2022/01/12 04:46:32;;;;;;;126.45;32.65;;;;;;;5.83;67.51;103758.00;5240915;28;20916;-43
2022/01/12 04:49:23;;;;;;;128.38;31.30;;;;;;;5.79;67.37;103759.81;5247092;28;20426;-47
2022/01/12 04:51:55;;;;;;;123.38;29.95;;;;;;;5.74;67.42;103753.88;5244227;28;20448;-45
2022/01/12 04:54:27;;;;;;;133.98;31.55;;;;;;;5.70;67.46;103757.50;5244978;28;20449;-43
2022/01/12 04:57:00;;;;;;;126.68;35.03;;;;;;;5.67;67.54;103761.06;5248893;28;20871;-43
2022/01/12 04:59:37;;;;;;;128.40;30.85;;;;;;;5.64;67.42;103770.81;5247671;28;20851;-43
2022/01/12 05:06:24;;;;;;;101.10;27.50;;;;;;;5.61;67.76;103782.22;5247402;28;20936;-42
2022/01/12 05:08:10;;;;;;;128.98;28.80;;;;;;;5.63;67.74;103795.28;5240976;28;20418;-43
2022/01/12 05:13:33;;;;;;;114.20;28.90;;;;;;;5.70;67.59;103781.09;5242969;28;20823;-43
2022/01/12 05:16:07;;;;;;;121.00;25.65;;;;;;;5.73;67.73;103794.97;5244427;28;20440;-42
2022/01/12 05:18:41;;;;;;;111.68;28.23;;;;;;;5.78;67.69;103794.84;5238928;28;20879;-45
2022/01/12 05:21:15;;;;;;;114.82;25.65;;;;;;;5.80;67.62;103798.28;5245904;28;20422;-50
2022/01/12 05:23:48;;;;;;;108.50;26.80;;;;;;;5.83;67.70;103792.94;5248080;28;20501;-50
2022/01/12 05:26:20;;;;;;;103.32;22.05;;;;;;;5.87;67.66;103794.56;5249236;28;20516;-44
2022/01/12 05:28:52;;;;;;;107.82;26.00;;;;;;;5.94;67.65;103788.22;5243824;28;20423;-46
2022/01/12 05:31:26;;;;;;;99.88;23.95;;;;;;;6.00;67.73;103792.44;5245306;28;20891;-44
2022/01/12 05:34:00;;;;;;;92.57;23.00;;;;;;;6.04;67.79;103799.34;5251410;28;20414;-43
2022/01/12 05:36:33;;;;;;;105.13;23.55;;;;;;;6.08;67.99;103800.09;5252237;28;20414;-44
2022/01/12 05:39:05;;;;;;;112.97;23.95;;;;;;;6.11;67.69;103803.47;5252104;28;20855;-44
2022/01/12 05:41:37;;;;;;;128.07;26.93;;;;;;;6.16;67.67;103800.69;5251004;28;20500;-44
2022/01/12 05:44:10;;;;;;;135.95;26.67;;;;;;;6.20;67.61;103802.34;5249305;28;20414;-43
2022/01/12 05:46:45;;;;;;;177.63;29.17;;;;;;;6.23;67.58;103808.34;5248418;28;20449;-42
2022/01/12 05:49:36;;;;;;;238.43;30.48;;;;;;;6.26;67.53;103806.53;5246029;28;20598;-43
2022/01/12 05:52:08;;;;;;;214.60;23.38;;;;;;;6.27;67.62;103813.50;5248013;28;20402;-43
2022/01/12 05:54:40;;;;;;;440.05;36.83;;;;;;;6.33;67.53;103818.53;5247879;28;20745;-43
2022/01/12 05:57:13;;;;;;;252.60;30.63;;;;;;;6.36;67.55;103819.31;5243019;28;20396;-42
2022/01/12 05:59:45;;;;;;;212.20;26.90;;;;;;;6.39;67.63;103826.22;5234300;28;20418;-44
2022/01/12 06:02:18;;;;;;;235.10;26.40;;;;;;;6.40;67.62;103831.41;5238053;28;20408;-45
2022/01/12 06:04:51;;;;;;;270.75;25.27;;;;;;;6.41;67.60;103833.16;5242423;28;20398;-44
2022/01/12 06:07:24;;;;;;;223.60;25.27;;;;;;;6.43;67.59;103841.81;5234888;28;20418;-43
2022/01/12 06:09:56;;;;;;;249.30;26.65;;;;;;;6.46;67.54;103841.72;5233442;28;20866;-44
2022/01/12 06:12:28;;;;;;;246.43;28.83;;;;;;;6.47;67.59;103843.44;5234723;28;20402;-45
2022/01/12 06:15:04;;;;;;;223.43;25.63;;;;;;;6.50;67.63;103847.72;5250696;28;20414;-44
2022/01/12 06:17:38;;;;;;;253.07;27.15;;;;;;;6.54;67.64;103853.75;5250704;28;20426;-43
2022/01/12 06:20:11;;;;;;;201.63;25.60;;;;;;;6.55;67.64;103842.34;5240692;28;20855;-44
2022/01/12 06:22:44;;;;;;;198.07;26.50;;;;;;;6.57;67.53;103845.78;5247614;28;20429;-44
2022/01/12 06:25:16;;;;;;;143.60;22.00;;;;;;;6.59;67.64;103849.19;5248958;28;20424;-43
2022/01/12 06:27:53;;;;;;;256.88;27.00;;;;;;;6.60;67.62;103853.56;5245245;28;20409;-45
2022/01/12 06:33:18;;;;;;;163.07;24.60;;;;;;;6.57;67.83;103864.16;5246014;28;20477;-42
2022/01/12 06:35:50;;;;;;;211.23;25.23;;;;;;;6.57;67.48;103864.16;5234321;28;20399;-43
2022/01/12 06:38:22;;;;;;;99.65;21.73;;;;;;;6.54;67.42;103870.38;5235456;28;20419;-44
2022/01/12 06:40:55;;;;;;;113.55;21.67;;;;;;;6.50;67.53;103870.50;5250063;28;20410;-44
2022/01/12 06:43:28;;;;;;;109.65;23.05;;;;;;;6.46;67.18;103878.47;5237975;28;20414;-43
2022/01/12 06:46:01;;;;;;;141.70;28.03;;;;;;;6.44;67.53;103884.66;5247362;28;20402;-43
2022/01/12 06:48:34;;;;;;;156.27;28.65;;;;;;;6.43;67.65;103894.31;5237704;28;20809;-44
2022/01/12 06:51:07;;;;;;;180.88;30.13;;;;;;;6.43;67.71;103899.56;5238047;28;20420;-43
2022/01/12 06:53:40;;;;;;;160.98;28.17;;;;;;;6.43;67.62;103904.81;5242325;28;20436;-43
2022/01/12 06:56:15;;;;;;;152.87;31.00;;;;;;;6.44;67.59;103908.31;5247332;28;20418;-44
2022/01/12 06:58:48;;;;;;;144.23;28.37;;;;;;;6.45;67.54;103902.16;5242071;28;20478;-43
2022/01/12 07:01:21;;;;;;;144.00;29.00;;;;;;;6.47;67.73;103900.31;5237945;28;20402;-45
2022/01/12 07:03:55;;;;;;;129.55;29.15;;;;;;;6.49;67.67;103905.56;5237349;28;20423;-45
2022/01/12 07:06:27;;;;;;;119.68;27.92;;;;;;;6.50;67.59;103910.75;5232214;28;20421;-45
2022/01/12 07:08:59;;;;;;;131.32;29.60;;;;;;;6.52;67.67;103908.06;5233623;28;20428;-45
2022/01/12 07:11:32;;;;;;;118.10;27.00;;;;;;;6.53;67.65;103917.66;5244237;28;20754;-44
2022/01/12 07:14:04;;;;;;;98.78;26.17;;;;;;;6.52;67.71;103914.19;5242065;28;20431;-46
2022/01/12 07:16:37;;;;;;;111.10;26.75;;;;;;;6.53;67.61;103925.53;5227676;28;20411;-44
2022/01/12 07:19:11;;;;;;;99.57;26.05;;;;;;;6.50;67.71;103925.63;5228968;28;20462;-44
2022/01/12 07:21:43;;;;;;;80.78;24.50;;;;;;;6.46;67.74;103920.47;5245594;28;20422;-44
2022/01/12 07:24:16;;;;;;;100.65;26.48;;;;;;;6.41;67.70;103924.16;5244832;28;20458;-44
2022/01/12 07:26:48;;;;;;;92.07;24.95;;;;;;;6.38;67.97;103921.63;5225018;28;20396;-46
2022/01/12 07:29:20;;;;;;;94.43;25.17;;;;;;;6.35;67.89;103912.09;5229631;28;20449;-46
2022/01/12 07:31:53;;;;;;;94.53;26.85;;;;;;;6.33;67.65;103913.03;5227484;28;20940;-48
2022/01/12 07:34:26;;;;;;;104.97;30.45;;;;;;;6.27;67.85;103914.09;5243730;28;20905;-43
2022/01/12 07:36:59;;;;;;;108.05;31.23;;;;;;;6.19;67.65;103916.06;5248487;28;20414;-45
2022/01/12 07:39:31;;;;;;;125.50;40.42;;;;;;;6.11;67.95;103923.31;5228852;28;20876;-45
2022/01/12 07:42:04;;;;;;;118.00;37.17;;;;;;;6.06;67.84;103919.97;5227460;28;20407;-43
2022/01/12 07:44:36;;;;;;;123.95;40.05;;;;;;;5.98;67.95;103934.16;5234844;28;20436;-46
2022/01/12 07:47:09;;;;;;;128.60;39.92;;;;;;;5.93;67.85;103941.31;5252187;28;20406;-44
2022/01/12 07:49:43;;;;;;;135.63;41.78;;;;;;;5.90;68.07;103945.75;5250978;28;20417;-45
2022/01/12 07:52:15;;;;;;;157.18;45.72;;;;;;;5.85;68.03;103943.22;5250809;28;20408;-43
2022/01/12 07:54:47;;;;;;;145.98;44.75;;;;;;;5.83;67.98;103952.94;5249205;28;20419;-46
2022/01/12 07:57:20;;;;;;;160.50;49.87;;;;;;;5.83;68.00;103952.06;5232325;28;20406;-47
2022/01/12 07:59:52;;;;;;;160.35;49.15;;;;;;;5.82;67.97;103959.06;5238744;28;20433;-44
2022/01/12 08:02:25;;;;;;;159.90;50.00;;;;;;;5.83;67.88;103952.06;5238211;28;20428;-44
2022/01/12 08:04:58;;;;;;;162.63;48.67;;;;;;;5.84;67.89;103962.50;5231444;28;20408;-46
2022/01/12 08:07:35;;;;;;;153.90;48.90;;;;;;;5.84;67.94;103962.50;5232018;28;20791;-46
2022/01/12 08:10:10;;;;;;;166.45;51.80;;;;;;;5.84;68.07;103962.50;5242357;28;20429;-46
2022/01/12 08:12:43;;;;;;;173.53;53.60;;;;;;;5.83;68.26;103963.41;5244785;28;20508;-44
2022/01/12 08:15:16;;;;;;;169.27;53.33;;;;;;;5.84;68.03;103967.75;5242617;28;20956;-43
2022/01/12 08:17:49;;;;;;;172.07;54.35;;;;;;;5.83;67.90;103970.44;5230036;28;20414;-47
2022/01/12 08:20:26;;;;;;;165.27;51.22;;;;;;;5.82;67.96;103980.03;5242365;28;20445;-45
2022/01/12 08:22:59;;;;;;;157.32;51.03;;;;;;;5.84;67.82;103986.13;5244118;28;20795;-44
2022/01/12 08:25:31;;;;;;;154.35;53.03;;;;;;;5.81;67.88;103994.06;5244708;28;20420;-44
2022/01/12 08:28:04;;;;;;;177.32;55.58;;;;;;;5.81;68.00;103999.31;5242752;28;20422;-45
2022/01/12 08:30:37;;;;;;;179.88;53.08;;;;;;;5.81;68.10;103996.69;5244313;28;20625;-42
2022/01/12 08:33:11;;;;;;;168.30;53.25;;;;;;;5.81;67.81;103990.59;5243746;28;20402;-46
2022/01/12 08:35:44;;;;;;;189.05;54.25;;;;;;;5.83;67.90;103991.41;5242220;28;20414;-43
2022/01/12 08:38:17;;;;;;;163.48;53.05;;;;;;;5.83;67.85;103991.41;5244400;28;20406;-42
2022/01/12 08:40:49;;;;;;;181.43;54.85;;;;;;;5.81;67.90;104003.69;5244516;28;20725;-45
2022/01/12 08:43:21;;;;;;;184.18;56.60;;;;;;;5.84;67.86;104014.97;5242167;28;20426;-44
2022/01/12 08:45:54;;;;;;;165.43;55.58;;;;;;;5.86;67.90;104014.94;5243578;28;20854;-45
2022/01/12 08:48:26;;;;;;;167.90;53.73;;;;;;;5.88;67.98;104010.50;5241522;28;20418;-45
2022/01/12 08:51:01;;;;;;;178.77;57.30;;;;;;;5.89;68.01;104023.59;5246389;28;20429;-42
2022/01/12 08:53:34;;;;;;;165.82;52.10;;;;;;;5.92;67.92;104022.66;5243714;28;20422;-43
2022/01/12 08:56:07;;;;;;;153.23;49.33;;;;;;;5.93;68.01;104020.00;5244865;28;20832;-46
2022/01/12 08:58:40;;;;;;;143.70;47.80;;;;;;;5.94;67.91;104021.72;5242896;28;20409;-45
2022/01/12 09:01:13;;;;;;;156.73;49.97;;;;;;;5.97;67.98;104023.41;5242810;28;20753;-46
2022/01/12 09:03:45;;;;;;;152.65;46.38;;;;;;;6.01;67.91;104030.31;5240962;28;20781;-44
2022/01/12 09:06:19;;;;;;;152.38;48.10;;;;;;;6.06;67.98;104030.16;5239277;28;20422;-45
2022/01/12 09:08:51;;;;;;;143.15;48.72;;;;;;;6.11;68.10;104039.63;5237089;28;20755;-44
2022/01/12 09:11:23;;;;;;;121.82;41.85;;;;;;;6.18;68.04;104042.94;5248537;28;20417;-46
2022/01/12 09:13:56;;;;;;;128.57;42.35;;;;;;;6.23;68.00;104043.69;5235863;28;20433;-46
2022/01/12 09:16:28;;;;;;;113.93;39.90;;;;;;;6.29;68.04;104034.75;5238788;28;20875;-47
2022/01/12 09:19:00;;;;;;;96.65;34.80;;;;;;;6.34;68.02;104041.59;5243489;28;20546;-43
2022/01/12 09:21:34;;;;;;;104.70;36.33;;;;;;;6.40;68.07;104051.94;5245644;28;20410;-47
2022/01/12 09:24:07;;;;;;;97.53;34.03;;;;;;;6.45;68.07;104050.06;5245951;28;20425;-45
2022/01/12 09:26:39;;;;;;;82.80;30.63;;;;;;;6.52;68.05;104045.47;5245081;28;20431;-45
2022/01/12 09:29:12;;;;;;;76.47;29.13;;;;;;;6.58;68.17;104049.69;5242737;28;20419;-44
2022/01/12 09:31:44;;;;;;;77.80;29.23;;;;;;;6.66;68.13;104047.72;5240728;28;20422;-47
2022/01/12 09:34:16;;;;;;;73.78;29.00;;;;;;;6.72;67.96;104052.78;5240487;28;20422;-46
2022/01/12 09:36:50;;;;;;;66.25;25.63;;;;;;;6.78;68.20;104067.47;5236918;28;20410;-53
2022/01/12 09:39:22;;;;;;;74.55;27.05;;;;;;;6.85;68.08;104063.78;5238829;28;20432;-45
2022/01/12 09:41:55;;;;;;;63.03;26.02;;;;;;;6.68;68.08;104020.47;5240535;28;20760;-44
2022/01/12 09:44:32;;;;;;;61.72;27.08;;;;;;;6.96;68.00;104066.06;5232510;28;20414;-43
2022/01/12 09:47:07;;;;;;;63.03;25.08;;;;;;;6.96;68.27;104079.22;5249183;28;20414;-45
2022/01/12 09:49:41;;;;;;;67.40;24.92;;;;;;;6.97;68.22;104073.91;5246066;28;20421;-44
2022/01/12 09:52:16;;;;;;;60.75;25.92;;;;;;;6.97;68.36;104076.53;5231076;28;20422;-45
2022/01/12 09:54:48;;;;;;;62.90;24.73;;;;;;;6.87;68.46;104077.72;5242780;28;20913;-46
2022/01/12 09:57:21;;;;;;;63.28;24.45;;;;;;;6.97;68.56;104079.19;5241587;28;20414;-48
2022/01/12 09:59:53;;;;;;;54.03;24.20;;;;;;;6.92;68.65;104081.94;5229219;28;20433;-49
2022/01/12 10:02:25;;;;;;;62.63;24.33;;;;;;;6.90;68.61;104078.47;5238998;28;20423;-44
2022/01/12 10:05:02;;;;;;;53.65;24.60;;;;;;;6.96;68.62;104087.09;5229299;28;21606;-45
2022/01/12 10:07:37;;;;;;;53.43;23.87;;;;;;;7.05;68.54;104084.19;5240731;28;20513;-46
2022/01/12 10:10:14;;;;;;;51.65;23.25;;;;;;;7.14;68.36;104070.75;5229386;28;20430;-44
2022/01/12 10:12:54;;;;;;;52.70;23.63;;;;;;;7.22;68.31;104083.69;5242456;28;20410;-45
2022/01/12 10:15:29;;;;;;;55.28;22.90;;;;;;;7.26;68.33;104086.16;5245398;28;20493;-45
2022/01/12 10:18:03;;;;;;;49.42;21.52;;;;;;;7.29;68.47;104091.31;5229200;28;20420;-46
2022/01/12 10:20:45;;;;;;;45.38;20.10;;;;;;;7.32;68.55;104093.84;5228763;28;20430;-47
2022/01/12 10:23:23;;;;;;;42.38;19.92;;;;;;;7.30;68.40;104071.13;5245499;28;20409;-45
2022/01/12 10:25:55;;;;;;;56.05;19.13;;;;;;;7.46;68.44;104077.59;5246381;28;20402;-44
2022/01/12 10:28:28;;;;;;;60.58;18.35;;;;;;;7.51;68.38;104085.34;5249741;28;20414;-44
2022/01/12 10:31:03;;;;;;;46.67;17.73;;;;;;;7.53;68.53;104088.81;5249022;28;20414;-43
2022/01/12 10:33:35;;;;;;;62.50;17.73;;;;;;;7.42;68.65;104080.41;5247780;28;20416;-45
2022/01/12 10:36:08;;;;;;;49.13;15.98;;;;;;;7.59;68.62;104109.66;5236248;28;20414;-45
2022/01/12 10:38:42;;;;;;;44.72;17.73;;;;;;;7.66;68.51;104105.03;5248364;28;20410;-47
2022/01/12 10:41:17;;;;;;;56.30;20.00;;;;;;;7.74;68.48;104098.63;5247716;28;20756;-45
2022/01/12 10:43:49;;;;;;;58.80;20.55;;;;;;;7.83;68.41;104106.22;5242629;28;20399;-50
2022/01/12 10:46:26;;;;;;;56.65;20.00;;;;;;;7.89;68.45;104091.97;5249370;28;20441;-45
2022/01/12 10:49:00;;;;;;;48.58;20.50;;;;;;;7.91;68.57;104094.56;5244030;28;20830;-43
2022/01/12 10:51:35;;;;;;;54.38;21.42;;;;;;;7.90;68.35;104087.56;5228800;28;20967;-45
2022/01/12 10:54:08;;;;;;;49.67;22.13;;;;;;;7.94;68.54;104083.91;5232535;28;20427;-47
2022/01/12 10:56:42;;;;;;;58.80;22.87;;;;;;;7.69;68.79;104042.66;5228125;28;20650;-45
2022/01/12 10:59:18;;;;;;;58.40;23.43;;;;;;;7.95;68.72;104064.56;5227214;28;20420;-44
2022/01/12 11:01:50;;;;;;;65.20;25.30;;;;;;;7.98;68.70;104053.94;5228296;28;20415;-46
2022/01/12 11:04:23;;;;;;;65.85;24.90;;;;;;;7.97;68.67;104052.22;5232922;28;20420;-44
2022/01/12 11:06:55;;;;;;;71.35;26.77;;;;;;;8.00;68.84;104057.38;5235871;28;20822;-44
2022/01/12 11:09:29;;;;;;;52.60;22.85;;;;;;;8.00;68.76;104062.66;5240266;28;20783;-47
2022/01/12 11:12:02;;;;;;;66.75;23.90;;;;;;;7.97;69.02;104049.59;5239997;28;20767;-44
2022/01/12 11:14:35;;;;;;;59.45;24.80;;;;;;;8.06;68.76;104051.91;5245936;28;20429;-46
2022/01/12 11:17:07;;;;;;;63.97;26.50;;;;;;;8.15;68.83;104051.59;5243041;28;20426;-44
2022/01/12 11:19:41;;;;;;;65.77;23.67;;;;;;;8.17;68.67;104043.59;5252298;28;20496;-47
2022/01/12 11:22:29;;;;;;;60.30;21.67;;;;;;;8.19;68.73;104055.81;5248872;28;20416;-45
2022/01/12 11:25:03;;;;;;;52.97;22.15;;;;;;;8.15;68.91;104041.06;5231371;28;20416;-44
2022/01/12 11:27:36;;;;;;;59.40;24.02;;;;;;;8.15;69.00;104040.19;5231897;28;20435;-47
2022/01/12 11:30:20;;;;;;;51.27;20.90;;;;;;;8.10;69.12;104037.72;5238462;28;20430;-42
2022/01/12 11:33:00;;;;;;;57.72;20.45;;;;;;;8.20;68.93;104047.00;5229601;28;20457;-44
2022/01/12 11:35:36;;;;;;;52.13;21.65;;;;;;;8.21;69.01;104043.47;5234739;28;20427;-45
2022/01/12 11:38:21;;;;;;;51.92;21.27;;;;;;;8.25;68.96;104073.16;5226494;28;21249;-45
2022/01/12 11:40:57;;;;;;;52.17;22.77;;;;;;;8.29;68.82;104051.06;5228077;28;20412;-45
2022/01/12 11:43:30;;;;;;;49.58;21.80;;;;;;;8.19;68.96;104032.13;5232407;28;20412;-43
2022/01/12 11:46:05;;;;;;;57.50;23.00;;;;;;;8.30;68.90;104044.91;5231216;28;20418;-44
2022/01/12 11:48:44;;;;;;;60.05;23.63;;;;;;;8.30;68.93;104043.13;5232710;28;20440;-44
2022/01/12 11:51:19;;;;;;;59.60;25.15;;;;;;;8.30;68.88;104051.03;5234159;28;20417;-48
2022/01/12 11:53:55;;;;;;;56.50;25.30;;;;;;;8.21;69.02;104039.97;5240861;28;20394;-46
2022/01/12 11:56:29;;;;;;;62.90;27.50;;;;;;;8.26;68.86;104038.88;5237861;28;20438;-46
2022/01/12 11:59:09;;;;;;;59.03;27.17;;;;;;;8.29;68.92;104030.84;5231718;28;20424;-47
2022/01/12 12:01:48;;;;;;;57.92;26.27;;;;;;;8.34;68.93;104027.22;5234081;28;20905;-45
2022/01/12 12:04:33;;;;;;;49.45;24.50;;;;;;;8.34;68.80;104029.84;5234668;28;20473;-47
2022/01/12 12:07:08;;;;;;;57.17;24.98;;;;;;;8.32;68.94;104017.56;5238634;28;20417;-45
2022/01/12 12:09:43;;;;;;;59.17;27.27;;;;;;;8.30;68.90;104019.44;5244321;28;20406;-44
2022/01/12 12:12:19;;;;;;;53.35;24.52;;;;;;;8.28;69.05;104005.44;5242784;28;20418;-52
2022/01/12 12:14:54;;;;;;;59.08;25.95;;;;;;;8.31;68.99;104000.06;5242799;28;20426;-45
2022/01/12 12:17:29;;;;;;;49.75;25.52;;;;;;;8.22;68.71;103989.88;5239595;28;20406;-46
2022/01/12 12:20:02;;;;;;;56.25;24.50;;;;;;;8.31;69.19;103999.22;5244499;28;20497;-43
2022/01/12 12:22:38;;;;;;;47.25;21.00;;;;;;;8.35;69.02;104000.81;5241606;28;20421;-47
2022/01/12 12:25:13;;;;;;;44.70;21.58;;;;;;;8.34;68.93;104006.16;5247375;28;20437;-46
2022/01/12 12:27:53;;;;;;;37.90;20.15;;;;;;;8.24;69.16;104019.66;5244382;28;20402;-46
2022/01/12 12:30:27;;;;;;;49.38;21.92;;;;;;;7.94;69.06;103973.38;5242085;28;20400;-43
2022/01/12 12:33:07;;;;;;;59.22;22.30;;;;;;;8.21;68.99;104029.44;5245081;28;20432;-47
2022/01/12 12:35:42;;;;;;;42.85;20.55;;;;;;;8.16;69.00;104026.97;5244634;28;20405;-49
2022/01/12 12:38:19;;;;;;;38.55;19.17;;;;;;;8.05;68.82;104010.69;5248047;28;21085;-44
2022/01/12 12:40:54;;;;;;;40.40;19.50;;;;;;;8.31;68.76;104044.84;5237549;28;20891;-44
2022/01/12 12:43:34;;;;;;;41.20;19.35;;;;;;;8.40;68.61;104050.72;5245197;28;20482;-47